Climatologie pour Saint-Brevin les Pins
Jour • Résumé pour juin 9, 2017 Système :  Métrique    Anglais   Mixte
« - 1 jour
+ 1 jour »
Jour Semaine Mois Année Personnalisé
  Maximum : Minimum : Moyenne :
Température sous abri : 20.0 °C 13.4 °C 16.9 °C
Point de rosée : 15.9 °C 12.4 °C 14.2 °C
Humidité : 95 % 71 % 84 %
Vitesse du vent : 20.9 km/h 0.0 km/h 8 km/h
Rafale : 29.0 km/h - -
Direction :- - West
Pression : 1019.2 hPa 1011.7 hPa -
Précipitations : 0.0 mm    
Historical Graphs
 
 
Tableau de données pour juin 9, 2017
Heure Tempé Pt rosée Pression Vent Vitesse Rafale Humidité Taux pluie (/hr) Soleil
00:00 16.0 °C 15.0 °C 1011.7 hPa West 14.5 km/h 20.9 km/h 94 % 0.0 mm 0 W/m2
00:05 16.0 °C 15.0 °C 1011.7 hPa WSW 17.7 km/h 29.0 km/h 94 % 0.0 mm 0 W/m2
00:15 16.0 °C 15.0 °C 1012.1 hPa WNW 11.3 km/h 25.7 km/h 94 % 0.0 mm 0 W/m2
00:20 16.1 °C 15.1 °C 1012.1 hPa West 20.9 km/h 27.4 km/h 94 % 0.0 mm 0 W/m2
00:25 16.1 °C 15.1 °C 1011.7 hPa West 11.3 km/h 27.4 km/h 94 % 0.0 mm 0 W/m2
00:30 16.1 °C 15.1 °C 1012.1 hPa WNW 14.5 km/h 24.1 km/h 94 % 0.0 mm 0 W/m2
00:35 16.1 °C 15.1 °C 1012.1 hPa WNW 9.7 km/h 20.9 km/h 94 % 0.0 mm 0 W/m2
00:40 16.1 °C 15.1 °C 1012.1 hPa West 8.0 km/h 20.9 km/h 94 % 0.0 mm 0 W/m2
00:45 15.9 °C 15.0 °C 1012.1 hPa West 6.4 km/h 24.1 km/h 94 % 0.0 mm 0 W/m2
00:50 15.7 °C 14.8 °C 1012.1 hPa WNW 6.4 km/h 24.1 km/h 94 % 0.0 mm 0 W/m2
01:00 15.7 °C 14.8 °C 1012.1 hPa NW 8.0 km/h 16.1 km/h 94 % 0.0 mm 0 W/m2
01:05 15.7 °C 14.8 °C 1012.1 hPa WNW 3.2 km/h 16.1 km/h 94 % 0.0 mm 0 W/m2
01:10 15.6 °C 14.8 °C 1012.1 hPa NW 9.7 km/h 14.5 km/h 95 % 0.0 mm 0 W/m2
01:15 15.7 °C 14.9 °C 1012.1 hPa WNW 4.8 km/h 12.9 km/h 95 % 0.0 mm 0 W/m2
01:20 15.6 °C 14.8 °C 1012.1 hPa WNW 11.3 km/h 16.1 km/h 95 % 0.0 mm 0 W/m2
01:25 15.6 °C 14.8 °C 1012.1 hPa WNW 6.4 km/h 16.1 km/h 95 % 0.0 mm 0 W/m2
01:30 15.6 °C 14.8 °C 1012.1 hPa WSW 9.7 km/h 16.1 km/h 95 % 0.0 mm 0 W/m2
01:35 15.6 °C 14.8 °C 1012.1 hPa WNW 9.7 km/h 16.1 km/h 95 % 0.0 mm 0 W/m2
01:45 15.5 °C 14.7 °C 1012.1 hPa NW 6.4 km/h 14.5 km/h 95 % 0.0 mm 0 W/m2
01:55 15.7 °C 14.9 °C 1012.1 hPa NW 8.0 km/h 22.5 km/h 95 % 0.0 mm 0 W/m2
02:00 15.7 °C 14.9 °C 1012.4 hPa WNW 11.3 km/h 22.5 km/h 95 % 0.0 mm 0 W/m2
02:05 15.6 °C 14.8 °C 1012.4 hPa SW 9.7 km/h 20.9 km/h 95 % 0.0 mm 0 W/m2
02:10 15.5 °C 14.7 °C 1012.4 hPa WNW 11.3 km/h 20.9 km/h 95 % 0.0 mm 0 W/m2
02:15 15.4 °C 14.6 °C 1012.1 hPa WNW 6.4 km/h 27.4 km/h 95 % 0.0 mm 0 W/m2
02:20 15.3 °C 14.5 °C 1012.4 hPa WNW 19.3 km/h 27.4 km/h 95 % 0.0 mm 0 W/m2
02:30 15.3 °C 14.3 °C 1012.4 hPa WNW 11.3 km/h 20.9 km/h 94 % 0.0 mm 0 W/m2
02:35 15.3 °C 14.3 °C 1012.4 hPa WNW 6.4 km/h 17.7 km/h 94 % 0.0 mm 0 W/m2
02:40 15.3 °C 14.3 °C 1012.4 hPa NW 12.9 km/h 17.7 km/h 94 % 0.0 mm 0 W/m2
02:45 15.3 °C 14.4 °C 1012.4 hPa NW 8.0 km/h 19.3 km/h 94 % 0.0 mm 0 W/m2
02:50 15.4 °C 14.4 °C 1012.4 hPa WNW 4.8 km/h 19.3 km/h 94 % 0.0 mm 0 W/m2
02:55 15.4 °C 14.3 °C 1012.4 hPa WNW 8.0 km/h 19.3 km/h 93 % 0.0 mm 0 W/m2
03:00 15.3 °C 14.2 °C 1012.4 hPa WNW 11.3 km/h 20.9 km/h 93 % 0.0 mm 0 W/m2
03:05 15.3 °C 14.2 °C 1012.4 hPa WNW 4.8 km/h 24.1 km/h 93 % 0.0 mm 0 W/m2
03:15 15.3 °C 14.2 °C 1012.4 hPa West 11.3 km/h 16.1 km/h 93 % 0.0 mm 0 W/m2
03:20 15.1 °C 14.0 °C 1012.4 hPa West 8.0 km/h 16.1 km/h 93 % 0.0 mm 0 W/m2
03:25 15.1 °C 14.1 °C 1012.4 hPa WNW 6.4 km/h 16.1 km/h 94 % 0.0 mm 0 W/m2
03:30 15.0 °C 14.0 °C 1012.8 hPa WNW 4.8 km/h 16.1 km/h 94 % 0.0 mm 0 W/m2
03:35 14.9 °C 14.0 °C 1012.8 hPa WNW 6.4 km/h 16.1 km/h 94 % 0.0 mm 0 W/m2
03:40 15.0 °C 14.0 °C 1012.8 hPa WNW 4.8 km/h 12.9 km/h 94 % 0.0 mm 0 W/m2
03:50 15.1 °C 14.1 °C 1012.8 hPa NW 6.4 km/h 19.3 km/h 94 % 0.0 mm 0 W/m2
04:00 15.0 °C 14.0 °C 1012.8 hPa WNW 4.8 km/h 12.9 km/h 94 % 0.0 mm 0 W/m2
04:05 14.9 °C 13.9 °C 1012.8 hPa WNW 4.8 km/h 14.5 km/h 94 % 0.0 mm 0 W/m2
04:10 14.7 °C 13.6 °C 1012.8 hPa WNW 8.0 km/h 14.5 km/h 93 % 0.0 mm 0 W/m2
04:15 14.7 °C 13.7 °C 1012.8 hPa WNW 6.4 km/h 16.1 km/h 94 % 0.0 mm 0 W/m2
04:20 14.7 °C 13.7 °C 1012.8 hPa NW 3.2 km/h 16.1 km/h 94 % 0.0 mm 0 W/m2
04:25 14.6 °C 13.7 °C 1012.8 hPa WNW 9.7 km/h 16.1 km/h 94 % 0.0 mm 0 W/m2
04:30 14.5 °C 13.5 °C 1012.8 hPa NW 9.7 km/h 16.1 km/h 94 % 0.0 mm 0 W/m2
04:35 14.4 °C 13.5 °C 1012.8 hPa NW 11.3 km/h 17.7 km/h 94 % 0.0 mm 0 W/m2
04:45 14.3 °C 13.2 °C 1012.8 hPa WNW 4.8 km/h 19.3 km/h 93 % 0.0 mm 0 W/m2
04:50 14.3 °C 13.2 °C 1012.8 hPa WNW 9.7 km/h 16.1 km/h 93 % 0.0 mm 0 W/m2
04:55 14.2 °C 13.1 °C 1013.1 hPa NW 11.3 km/h 19.3 km/h 93 % 0.0 mm 0 W/m2
05:00 14.2 °C 13.1 °C 1013.1 hPa WNW 3.2 km/h 19.3 km/h 93 % 0.0 mm 0 W/m2
05:05 14.1 °C 12.9 °C 1013.1 hPa Calm   12.9 km/h 93 % 0.0 mm 0 W/m2
05:10 14.0 °C 13.0 °C 1013.1 hPa WNW 4.8 km/h 17.7 km/h 94 % 0.0 mm 0 W/m2
05:20 13.8 °C 12.7 °C 1013.1 hPa West 6.4 km/h 11.3 km/h 93 % 0.0 mm 0 W/m2
05:30 13.5 °C 12.6 °C 1012.8 hPa West 4.8 km/h 8.0 km/h 94 % 0.0 mm 0 W/m2
05:35 13.4 °C 12.4 °C 1013.1 hPa West 4.8 km/h 8.0 km/h 94 % 0.0 mm 0 W/m2
05:40 13.4 °C 12.4 °C 1013.1 hPa WNW 4.8 km/h 11.3 km/h 94 % 0.0 mm 0 W/m2
05:45 13.5 °C 12.7 °C 1013.1 hPa WNW 1.6 km/h 11.3 km/h 95 % 0.0 mm 0 W/m2
05:50 13.4 °C 12.4 °C 1013.1 hPa WNW 4.8 km/h 9.7 km/h 94 % 0.0 mm 0 W/m2
05:55 13.4 °C 12.7 °C 1013.1 hPa NW 6.4 km/h 11.3 km/h 95 % 0.0 mm 0 W/m2
06:00 13.6 °C 12.8 °C 1013.1 hPa NW 6.4 km/h 12.9 km/h 95 % 0.0 mm 0 W/m2
06:05 13.7 °C 12.8 °C 1013.1 hPa West 3.2 km/h 16.1 km/h 94 % 0.0 mm 0 W/m2
06:15 13.6 °C 12.7 °C 1013.4 hPa NW 8.0 km/h 16.1 km/h 94 % 0.0 mm 0 W/m2
06:20 13.6 °C 12.4 °C 1013.4 hPa Calm   9.7 km/h 93 % 0.0 mm 5 W/m2
06:25 13.5 °C 12.6 °C 1013.4 hPa Calm   9.7 km/h 94 % 0.0 mm 7 W/m2
06:30 13.7 °C 12.7 °C 1013.4 hPa West 4.8 km/h 12.9 km/h 94 % 0.0 mm 9 W/m2
06:35 13.6 °C 12.8 °C 1013.4 hPa WNW 6.4 km/h 12.9 km/h 95 % 0.0 mm 12 W/m2
06:40 13.6 °C 12.8 °C 1013.4 hPa WNW 1.6 km/h 17.7 km/h 95 % 0.0 mm 14 W/m2
06:45 13.7 °C 12.9 °C 1013.8 hPa WNW 6.4 km/h 17.7 km/h 95 % 0.0 mm 18 W/m2
06:50 13.8 °C 13.0 °C 1013.8 hPa NW 9.7 km/h 16.1 km/h 95 % 0.0 mm 19 W/m2
07:00 14.0 °C 13.0 °C 1013.8 hPa NW 1.6 km/h 16.1 km/h 94 % 0.0 mm 25 W/m2
07:05 14.0 °C 13.0 °C 1013.8 hPa West 9.7 km/h 16.1 km/h 94 % 0.0 mm 26 W/m2
07:10 14.1 °C 13.1 °C 1013.8 hPa WNW 3.2 km/h 14.5 km/h 94 % 0.0 mm 28 W/m2
07:15 14.2 °C 13.3 °C 1014.1 hPa West 3.2 km/h 16.1 km/h 94 % 0.0 mm 32 W/m2
07:20 14.3 °C 13.2 °C 1014.1 hPa WNW 8.0 km/h 16.1 km/h 93 % 0.0 mm 33 W/m2
07:25 14.4 °C 13.3 °C 1014.1 hPa WNW 9.7 km/h 14.5 km/h 93 % 0.0 mm 37 W/m2
07:30 14.5 °C 13.4 °C 1014.1 hPa WNW 6.4 km/h 12.9 km/h 93 % 0.0 mm 39 W/m2
07:35 14.7 °C 13.5 °C 1014.1 hPa West 1.6 km/h 12.9 km/h 93 % 0.0 mm 44 W/m2
07:45 15.0 °C 13.7 °C 1014.1 hPa West 4.8 km/h 12.9 km/h 92 % 0.0 mm 44 W/m2
07:50 15.2 °C 13.9 °C 1014.1 hPa WNW 9.7 km/h 17.7 km/h 92 % 0.0 mm 142 W/m2
07:55 15.3 °C 13.8 °C 1014.4 hPa West 8.0 km/h 17.7 km/h 91 % 0.0 mm 204 W/m2
08:00 15.4 °C 13.8 °C 1014.4 hPa West 3.2 km/h 16.1 km/h 90 % 0.0 mm 221 W/m2
08:05 15.6 °C 13.8 °C 1014.4 hPa WNW 8.0 km/h 17.7 km/h 89 % 0.0 mm 236 W/m2
08:10 15.8 °C 14.0 °C 1014.4 hPa West 8.0 km/h 17.7 km/h 89 % 0.0 mm 251 W/m2
08:15 15.9 °C 13.9 °C 1014.4 hPa West 3.2 km/h 16.1 km/h 88 % 0.0 mm 264 W/m2
08:20 16.0 °C 14.0 °C 1014.4 hPa WNW 8.0 km/h 14.5 km/h 88 % 0.0 mm 278 W/m2
08:30 16.2 °C 14.1 °C 1014.4 hPa West 6.4 km/h 14.5 km/h 87 % 0.0 mm 304 W/m2
08:35 16.4 °C 14.3 °C 1014.8 hPa West 6.4 km/h 14.5 km/h 87 % 0.0 mm 322 W/m2
08:40 16.5 °C 14.1 °C 1014.8 hPa NW 1.6 km/h 17.7 km/h 86 % 0.0 mm 230 W/m2
08:45 16.6 °C 14.2 °C 1014.8 hPa Calm   17.7 km/h 86 % 0.0 mm 350 W/m2
08:50 16.7 °C 14.2 °C 1014.8 hPa West 4.8 km/h 14.5 km/h 85 % 0.0 mm 362 W/m2
08:55 16.8 °C 14.2 °C 1015.1 hPa West 12.9 km/h 20.9 km/h 85 % 0.0 mm 380 W/m2
09:00 16.9 °C 14.0 °C 1015.1 hPa West 6.4 km/h 20.9 km/h 83 % 0.0 mm 390 W/m2
09:05 17.0 °C 14.1 °C 1015.1 hPa West 3.2 km/h 16.1 km/h 83 % 0.0 mm 429 W/m2
09:15 17.3 °C 14.5 °C 1015.1 hPa WNW 6.4 km/h 17.7 km/h 84 % 0.0 mm 462 W/m2
09:20 17.3 °C 14.2 °C 1015.5 hPa West 8.0 km/h 17.7 km/h 82 % 0.0 mm 492 W/m2
09:25 17.3 °C 13.8 °C 1015.5 hPa West 9.7 km/h 17.7 km/h 80 % 0.0 mm 485 W/m2
09:30 17.3 °C 14.2 °C 1015.5 hPa NW 4.8 km/h 17.7 km/h 82 % 0.0 mm 455 W/m2
09:35 17.3 °C 14.0 °C 1015.5 hPa NW 9.7 km/h 17.7 km/h 81 % 0.0 mm 503 W/m2
09:40 17.4 °C 14.0 °C 1015.5 hPa West 17.7 km/h 20.9 km/h 80 % 0.0 mm 454 W/m2
09:45 17.4 °C 14.0 °C 1015.5 hPa West 6.4 km/h 20.9 km/h 80 % 0.0 mm 497 W/m2
09:50 17.6 °C 14.1 °C 1015.5 hPa West 8.0 km/h 17.7 km/h 80 % 0.0 mm 469 W/m2
10:00 17.7 °C 14.0 °C 1015.8 hPa WSW 9.7 km/h 19.3 km/h 79 % 0.0 mm 589 W/m2
10:05 17.9 °C 14.4 °C 1015.8 hPa West 9.7 km/h 19.3 km/h 80 % 0.0 mm 599 W/m2
10:10 18.6 °C 15.2 °C 1015.8 hPa WSW 8.0 km/h 16.1 km/h 81 % 0.0 mm 438 W/m2
10:15 18.1 °C 14.2 °C 1015.8 hPa West 12.9 km/h 17.7 km/h 78 % 0.0 mm 606 W/m2
10:20 17.9 °C 14.1 °C 1015.8 hPa West 6.4 km/h 17.7 km/h 78 % 0.0 mm 596 W/m2
10:25 18.0 °C 14.3 °C 1016.1 hPa West 8.0 km/h 17.7 km/h 79 % 0.0 mm 617 W/m2
10:30 17.9 °C 14.2 °C 1016.1 hPa West 3.2 km/h 19.3 km/h 79 % 0.0 mm 612 W/m2
10:35 18.0 °C 14.5 °C 1016.1 hPa WNW 14.5 km/h 19.3 km/h 80 % 0.0 mm 654 W/m2
10:45 18.3 °C 15.0 °C 1015.8 hPa West 11.3 km/h 17.7 km/h 81 % 0.0 mm 714 W/m2
10:50 18.3 °C 14.6 °C 1015.8 hPa WSW 6.4 km/h 17.7 km/h 79 % 0.0 mm 708 W/m2
10:55 18.7 °C 15.3 °C 1015.8 hPa West 8.0 km/h 16.1 km/h 81 % 0.0 mm 728 W/m2
11:00 18.4 °C 14.7 °C 1015.8 hPa WSW 12.9 km/h 16.1 km/h 79 % 0.0 mm 731 W/m2
11:05 18.2 °C 14.5 °C 1016.1 hPa West 14.5 km/h 19.3 km/h 79 % 0.0 mm 733 W/m2
11:10 18.5 °C 14.8 °C 1016.1 hPa WNW 8.0 km/h 19.3 km/h 79 % 0.0 mm 737 W/m2
11:15 18.4 °C 14.7 °C 1016.1 hPa West 8.0 km/h 19.3 km/h 79 % 0.0 mm 747 W/m2
11:20 18.8 °C 15.3 °C 1016.1 hPa West 6.4 km/h 19.3 km/h 80 % 0.0 mm 763 W/m2
11:30 18.9 °C 14.4 °C 1016.1 hPa SW 6.4 km/h 16.1 km/h 75 % 0.0 mm 763 W/m2
11:35 18.4 °C 14.3 °C 1016.5 hPa West 11.3 km/h 16.1 km/h 77 % 0.0 mm 763 W/m2
11:40 18.6 °C 14.5 °C 1016.5 hPa West 14.5 km/h 19.3 km/h 77 % 0.0 mm 759 W/m2
11:45 18.6 °C 14.8 °C 1016.5 hPa NW 11.3 km/h 19.3 km/h 79 % 0.0 mm 772 W/m2
11:50 18.5 °C 15.2 °C 1016.5 hPa WNW 9.7 km/h 19.3 km/h 81 % 0.0 mm 786 W/m2
11:55 18.4 °C 14.5 °C 1016.5 hPa WNW 3.2 km/h 19.3 km/h 78 % 0.0 mm 745 W/m2
12:00 18.6 °C 14.5 °C 1016.5 hPa West 14.5 km/h 17.7 km/h 77 % 0.0 mm 826 W/m2
12:05 18.8 °C 14.9 °C 1016.5 hPa West 8.0 km/h 17.7 km/h 78 % 0.0 mm 826 W/m2
12:15 18.7 °C 14.8 °C 1016.5 hPa West 3.2 km/h 19.3 km/h 78 % 0.0 mm 816 W/m2
12:20 18.9 °C 14.8 °C 1016.5 hPa WSW 8.0 km/h 19.3 km/h 77 % 0.0 mm 831 W/m2
12:25 19.1 °C 15.4 °C 1016.5 hPa NNW 11.3 km/h 17.7 km/h 79 % 0.0 mm 831 W/m2
12:30 19.4 °C 15.9 °C 1016.5 hPa NW 16.1 km/h 17.7 km/h 80 % 0.0 mm 877 W/m2
12:35 19.3 °C 14.5 °C 1016.8 hPa West 14.5 km/h 17.7 km/h 74 % 0.0 mm 821 W/m2
12:40 18.9 °C 14.8 °C 1016.8 hPa West 9.7 km/h 17.7 km/h 77 % 0.0 mm 865 W/m2
12:45 19.1 °C 14.8 °C 1016.8 hPa West 9.7 km/h 17.7 km/h 76 % 0.0 mm 687 W/m2
12:50 18.8 °C 15.1 °C 1016.8 hPa WNW 11.3 km/h 20.9 km/h 79 % 0.0 mm 981 W/m2
13:00 19.0 °C 14.9 °C 1016.8 hPa West 12.9 km/h 19.3 km/h 77 % 0.0 mm 988 W/m2
13:05 19.1 °C 15.3 °C 1016.8 hPa West 16.1 km/h 19.3 km/h 79 % 0.0 mm 1048 W/m2
13:10 18.9 °C 14.8 °C 1017.2 hPa West 14.5 km/h 19.3 km/h 77 % 0.0 mm 1048 W/m2
13:15 18.8 °C 15.3 °C 1017.2 hPa SW 17.7 km/h 19.3 km/h 80 % 0.0 mm 993 W/m2
13:20 19.2 °C 14.9 °C 1017.2 hPa West 16.1 km/h 17.7 km/h 76 % 0.0 mm 935 W/m2
13:25 19.3 °C 15.0 °C 1017.2 hPa West 14.5 km/h 19.3 km/h 76 % 0.0 mm 986 W/m2
13:30 18.9 °C 14.6 °C 1017.2 hPa WSW 8.0 km/h 19.3 km/h 76 % 0.0 mm 925 W/m2
13:35 19.2 °C 14.8 °C 1017.2 hPa WNW 11.3 km/h 17.7 km/h 76 % 0.0 mm 916 W/m2
13:45 19.3 °C 14.7 °C 1017.5 hPa West 14.5 km/h 20.9 km/h 75 % 0.0 mm 904 W/m2
13:50 19.7 °C 15.3 °C 1017.2 hPa WNW 9.7 km/h 20.9 km/h 76 % 0.0 mm 844 W/m2
13:55 19.1 °C 14.7 °C 1017.2 hPa West 11.3 km/h 19.3 km/h 76 % 0.0 mm 775 W/m2
14:00 19.0 °C 14.7 °C 1017.5 hPa WNW 14.5 km/h 19.3 km/h 76 % 0.0 mm 638 W/m2
14:05 18.6 °C 14.2 °C 1017.5 hPa WSW 12.9 km/h 19.3 km/h 76 % 0.0 mm 947 W/m2
14:10 18.8 °C 14.3 °C 1017.5 hPa West 9.7 km/h 19.3 km/h 75 % 0.0 mm 951 W/m2
14:15 19.2 °C 15.5 °C 1017.5 hPa West 8.0 km/h 17.7 km/h 79 % 0.0 mm 967 W/m2
14:20 19.2 °C 15.0 °C 1017.5 hPa WSW 11.3 km/h 17.7 km/h 77 % 0.0 mm 918 W/m2
14:30 19.7 °C 14.9 °C 1017.2 hPa WNW 14.5 km/h 17.7 km/h 74 % 0.0 mm 1009 W/m2
14:35 18.9 °C 14.6 °C 1017.5 hPa Calm   20.9 km/h 76 % 0.0 mm 1042 W/m2
14:40 18.8 °C 15.1 °C 1017.5 hPa West 8.0 km/h 20.9 km/h 79 % 0.0 mm 1042 W/m2
14:45 19.1 °C 14.6 °C 1017.5 hPa WSW 9.7 km/h 19.3 km/h 75 % 0.0 mm 1007 W/m2
14:50 19.6 °C 15.5 °C 1017.5 hPa WSW 12.9 km/h 20.9 km/h 77 % 0.0 mm 949 W/m2
14:55 19.3 °C 15.2 °C 1017.5 hPa SW 14.5 km/h 20.9 km/h 77 % 0.0 mm 912 W/m2
15:00 20.0 °C 15.8 °C 1017.5 hPa West 6.4 km/h 19.3 km/h 77 % 0.0 mm 900 W/m2
15:05 20.0 °C 14.6 °C 1017.5 hPa WSW 6.4 km/h 19.3 km/h 71 % 0.0 mm 905 W/m2
15:15 18.8 °C 14.7 °C 1017.5 hPa WSW 16.1 km/h 19.3 km/h 77 % 0.0 mm 902 W/m2
15:20 19.2 °C 15.3 °C 1017.8 hPa WNW 11.3 km/h 19.3 km/h 78 % 0.0 mm 881 W/m2
15:25 19.6 °C 15.3 °C 1017.8 hPa WNW 14.5 km/h 25.7 km/h 76 % 0.0 mm 872 W/m2
15:30 19.1 °C 14.7 °C 1017.8 hPa West 17.7 km/h 25.7 km/h 76 % 0.0 mm 865 W/m2
15:35 19.1 °C 14.7 °C 1017.8 hPa West 8.0 km/h 24.1 km/h 76 % 0.0 mm 860 W/m2
15:40 19.8 °C 15.2 °C 1017.8 hPa West 16.1 km/h 22.5 km/h 75 % 0.0 mm 842 W/m2
15:45 19.3 °C 14.8 °C 1017.8 hPa West 12.9 km/h 17.7 km/h 75 % 0.0 mm 854 W/m2
15:50 19.7 °C 15.0 °C 1017.8 hPa WSW 14.5 km/h 20.9 km/h 74 % 0.0 mm 837 W/m2
16:00 19.6 °C 15.8 °C 1017.8 hPa SSW 8.0 km/h 20.9 km/h 79 % 0.0 mm 823 W/m2
16:05 19.5 °C 15.4 °C 1017.8 hPa NW 19.3 km/h 22.5 km/h 77 % 0.0 mm 816 W/m2
16:10 19.2 °C 15.2 °C 1017.8 hPa WNW 17.7 km/h 22.5 km/h 78 % 0.0 mm 805 W/m2
16:15 19.3 °C 14.5 °C 1017.8 hPa WNW 12.9 km/h 22.5 km/h 74 % 0.0 mm 800 W/m2
16:20 19.2 °C 14.7 °C 1017.8 hPa West 12.9 km/h 22.5 km/h 75 % 0.0 mm 795 W/m2
16:25 19.3 °C 14.4 °C 1017.8 hPa West 14.5 km/h 20.9 km/h 73 % 0.0 mm 780 W/m2
16:30 19.1 °C 13.9 °C 1018.2 hPa WSW 8.0 km/h 25.7 km/h 72 % 0.0 mm 773 W/m2
16:35 18.9 °C 14.2 °C 1018.2 hPa WSW 9.7 km/h 25.7 km/h 74 % 0.0 mm 763 W/m2
16:45 18.7 °C 13.9 °C 1018.2 hPa West 17.7 km/h 25.7 km/h 74 % 0.0 mm 742 W/m2
16:50 19.2 °C 14.3 °C 1018.2 hPa West 16.1 km/h 25.7 km/h 73 % 0.0 mm 731 W/m2
16:55 19.3 °C 14.6 °C 1018.2 hPa WSW 16.1 km/h 20.9 km/h 74 % 0.0 mm 722 W/m2
17:00 19.0 °C 14.3 °C 1018.2 hPa SSW 11.3 km/h 20.9 km/h 74 % 0.0 mm 700 W/m2
17:05 19.1 °C 14.5 °C 1018.2 hPa West 20.9 km/h 24.1 km/h 75 % 0.0 mm 693 W/m2
17:10 19.0 °C 14.7 °C 1018.2 hPa SW 11.3 km/h 24.1 km/h 76 % 0.0 mm 689 W/m2
17:15 19.0 °C 14.3 °C 1018.2 hPa WSW 6.4 km/h 22.5 km/h 74 % 0.0 mm 677 W/m2
17:20 19.3 °C 14.7 °C 1018.2 hPa West 8.0 km/h 20.9 km/h 75 % 0.0 mm 668 W/m2
17:30 19.6 °C 15.1 °C 1018.2 hPa SSW 3.2 km/h 19.3 km/h 75 % 0.0 mm 638 W/m2
17:35 19.2 °C 14.5 °C 1018.2 hPa WSW 8.0 km/h 17.7 km/h 74 % 0.0 mm 629 W/m2
17:40 18.8 °C 14.5 °C 1017.8 hPa West 14.5 km/h 20.9 km/h 76 % 0.0 mm 603 W/m2
17:45 18.8 °C 14.0 °C 1018.2 hPa West 1.6 km/h 20.9 km/h 74 % 0.0 mm 608 W/m2
17:50 18.6 °C 13.9 °C 1017.8 hPa WNW 12.9 km/h 22.5 km/h 74 % 0.0 mm 568 W/m2
17:55 18.6 °C 14.0 °C 1017.8 hPa West 4.8 km/h 22.5 km/h 75 % 0.0 mm 577 W/m2
18:00 18.9 °C 14.2 °C 1017.8 hPa West 8.0 km/h 17.7 km/h 74 % 0.0 mm 570 W/m2
18:05 19.1 °C 14.4 °C 1017.8 hPa West 3.2 km/h 19.3 km/h 74 % 0.0 mm 534 W/m2
18:15 18.4 °C 14.1 °C 1018.2 hPa West 11.3 km/h 17.7 km/h 76 % 0.0 mm 413 W/m2
18:20 18.2 °C 14.1 °C 1017.8 hPa WSW 8.0 km/h 20.9 km/h 77 % 0.0 mm 403 W/m2
18:25 18.2 °C 14.1 °C 1018.2 hPa West 6.4 km/h 20.9 km/h 77 % 0.0 mm 429 W/m2
18:30 18.1 °C 14.2 °C 1018.2 hPa WNW 6.4 km/h 19.3 km/h 78 % 0.0 mm 359 W/m2
18:35 18.3 °C 14.2 °C 1017.8 hPa WNW 8.0 km/h 17.7 km/h 77 % 0.0 mm 364 W/m2
18:40 18.1 °C 14.0 °C 1018.2 hPa West 14.5 km/h 19.3 km/h 77 % 0.0 mm 260 W/m2
18:45 17.7 °C 13.8 °C 1018.2 hPa WNW 8.0 km/h 19.3 km/h 78 % 0.0 mm 383 W/m2
18:50 18.0 °C 14.1 °C 1018.2 hPa West 11.3 km/h 19.3 km/h 78 % 0.0 mm 429 W/m2
19:00 18.5 °C 14.6 °C 1018.2 hPa NW 6.4 km/h 17.7 km/h 78 % 0.0 mm 390 W/m2
19:05 18.0 °C 13.9 °C 1018.2 hPa West 8.0 km/h 19.3 km/h 77 % 0.0 mm 285 W/m2
19:10 17.6 °C 13.7 °C 1018.2 hPa West 14.5 km/h 19.3 km/h 78 % 0.0 mm 197 W/m2
19:15 17.4 °C 13.7 °C 1018.2 hPa WSW 12.9 km/h 17.7 km/h 79 % 0.0 mm 178 W/m2
19:20 17.4 °C 13.8 °C 1018.2 hPa West 4.8 km/h 17.7 km/h 79 % 0.0 mm 264 W/m2
19:25 17.6 °C 14.1 °C 1018.2 hPa WSW 3.2 km/h 14.5 km/h 80 % 0.0 mm 165 W/m2
19:30 17.5 °C 14.0 °C 1018.2 hPa Calm   16.1 km/h 80 % 0.0 mm 199 W/m2
19:35 17.6 °C 14.3 °C 1018.2 hPa West 8.0 km/h 16.1 km/h 81 % 0.0 mm 146 W/m2
19:45 17.3 °C 14.0 °C 1018.5 hPa Calm   16.1 km/h 81 % 0.0 mm 125 W/m2
19:50 17.3 °C 14.0 °C 1018.2 hPa SSW 4.8 km/h 16.1 km/h 81 % 0.0 mm 118 W/m2
19:55 17.3 °C 14.2 °C 1018.5 hPa SW 12.9 km/h 14.5 km/h 82 % 0.0 mm 125 W/m2
20:00 17.2 °C 13.9 °C 1018.5 hPa WSW 11.3 km/h 14.5 km/h 81 % 0.0 mm 121 W/m2
20:05 17.3 °C 14.0 °C 1018.5 hPa WSW 8.0 km/h 14.5 km/h 81 % 0.0 mm 84 W/m2
20:10 17.2 °C 13.9 °C 1018.5 hPa SW 6.4 km/h 12.9 km/h 81 % 0.0 mm 86 W/m2
20:15 17.1 °C 14.0 °C 1018.5 hPa WSW 4.8 km/h 14.5 km/h 82 % 0.0 mm 83 W/m2
20:20 17.1 °C 14.0 °C 1018.5 hPa West 6.4 km/h 14.5 km/h 82 % 0.0 mm 90 W/m2
20:30 17.1 °C 13.8 °C 1018.5 hPa WNW 9.7 km/h 16.1 km/h 81 % 0.0 mm 84 W/m2
20:35 16.9 °C 13.7 °C 1018.5 hPa SW 3.2 km/h 12.9 km/h 81 % 0.0 mm 67 W/m2
20:40 16.8 °C 13.6 °C 1018.5 hPa WSW 3.2 km/h 16.1 km/h 81 % 0.0 mm 60 W/m2
20:45 16.8 °C 13.7 °C 1018.5 hPa WNW 1.6 km/h 16.1 km/h 82 % 0.0 mm 62 W/m2
20:50 16.7 °C 13.6 °C 1018.5 hPa WNW 3.2 km/h 9.7 km/h 82 % 0.0 mm 60 W/m2
20:55 16.7 °C 13.6 °C 1018.5 hPa SW 6.4 km/h 12.9 km/h 82 % 0.0 mm 49 W/m2
21:00 16.7 °C 13.8 °C 1018.5 hPa WSW 6.4 km/h 12.9 km/h 83 % 0.0 mm 42 W/m2
21:05 16.7 °C 13.8 °C 1018.5 hPa WSW 4.8 km/h 14.5 km/h 83 % 0.0 mm 37 W/m2
21:15 16.7 °C 13.8 °C 1018.5 hPa Calm   12.9 km/h 83 % 0.0 mm 26 W/m2
21:25 16.5 °C 13.6 °C 1018.5 hPa WNW 1.6 km/h 11.3 km/h 83 % 0.0 mm 25 W/m2
21:30 16.5 °C 13.6 °C 1018.5 hPa West 4.8 km/h 11.3 km/h 83 % 0.0 mm 28 W/m2
21:35 16.6 °C 13.7 °C 1018.2 hPa West 3.2 km/h 11.3 km/h 83 % 0.0 mm 30 W/m2
21:40 16.6 °C 13.7 °C 1018.5 hPa Calm   12.9 km/h 83 % 0.0 mm 21 W/m2
21:45 16.5 °C 13.6 °C 1018.5 hPa Calm   12.9 km/h 83 % 0.0 mm 14 W/m2
21:50 16.4 °C 13.7 °C 1018.5 hPa Calm   12.9 km/h 84 % 0.0 mm 11 W/m2
22:00 16.4 °C 13.7 °C 1018.5 hPa WSW 4.8 km/h 11.3 km/h 84 % 0.0 mm 0 W/m2
22:05 16.3 °C 13.6 °C 1018.5 hPa West 1.6 km/h 12.9 km/h 84 % 0.0 mm 0 W/m2
22:10 16.2 °C 13.7 °C 1018.5 hPa WSW 8.0 km/h 12.9 km/h 85 % 0.0 mm 0 W/m2
22:15 16.2 °C 13.7 °C 1018.5 hPa SW 3.2 km/h 11.3 km/h 85 % 0.0 mm 0 W/m2
22:20 16.2 °C 13.5 °C 1018.5 hPa WSW 4.8 km/h 11.3 km/h 84 % 0.0 mm 0 W/m2
22:25 16.2 °C 13.5 °C 1018.5 hPa WSW 3.2 km/h 8.0 km/h 84 % 0.0 mm 0 W/m2
22:30 16.2 °C 13.6 °C 1018.8 hPa WSW 8.0 km/h 8.0 km/h 85 % 0.0 mm 0 W/m2
22:35 16.1 °C 13.6 °C 1018.8 hPa Calm   11.3 km/h 85 % 0.0 mm 0 W/m2
22:45 16.2 °C 13.7 °C 1018.8 hPa Calm   11.3 km/h 85 % 0.0 mm 0 W/m2
22:50 16.2 °C 13.6 °C 1018.8 hPa WSW 4.8 km/h 8.0 km/h 85 % 0.0 mm 0 W/m2
22:55 16.2 °C 13.5 °C 1018.8 hPa Calm   11.3 km/h 84 % 0.0 mm 0 W/m2
23:00 16.3 °C 13.6 °C 1018.8 hPa WSW 8.0 km/h 11.3 km/h 84 % 0.0 mm 0 W/m2
23:05 16.2 °C 13.5 °C 1018.8 hPa WSW 6.4 km/h 11.3 km/h 84 % 0.0 mm 0 W/m2
23:10 16.2 °C 13.5 °C 1018.8 hPa Calm   11.3 km/h 84 % 0.0 mm 0 W/m2
23:15 16.1 °C 13.5 °C 1018.8 hPa WSW 1.6 km/h 8.0 km/h 85 % 0.0 mm 0 W/m2
23:20 16.0 °C 13.5 °C 1018.8 hPa West 3.2 km/h 8.0 km/h 85 % 0.0 mm 0 W/m2
23:30 15.9 °C 13.5 °C 1018.8 hPa WSW 3.2 km/h 8.0 km/h 86 % 0.0 mm 0 W/m2
23:35 15.9 °C 13.5 °C 1019.2 hPa WSW 1.6 km/h 9.7 km/h 86 % 0.0 mm 0 W/m2
23:40 15.9 °C 13.6 °C 1019.2 hPa WSW 4.8 km/h 9.7 km/h 86 % 0.0 mm 0 W/m2
23:45 16.2 °C 13.8 °C 1019.2 hPa Calm   11.3 km/h 86 % 0.0 mm 0 W/m2
23:50 16.2 °C 13.8 °C 1019.2 hPa Calm   11.3 km/h 86 % 0.0 mm 0 W/m2
23:55 16.1 °C 13.7 °C 1019.2 hPa WSW 3.2 km/h 11.3 km/h 86 % 0.0 mm 0 W/m2
Avec l'autorisation de Weather Underground - 1.5 mb